Time;durP1;ratioP1;P1;durP2;ratioP2;P2;SDS_P1;SDS_P2;PMS_P1;PMS_P2;Temp;Humidity;BMP_temperature;BMP_pressure;BME280_temperature;BME280_humidity;BME280_pressure;Samples;Min_cycle;Max_cycle;Signal;HPM_P1;HPM_P2
2023/01/26 00:02:16;;;;;;;;;;;3.90;77.50;;;;;;5077068;28;19979;-88
2023/01/26 00:04:42;;;;;;;;;;;3.90;77.60;;;;;;5077060;28;20033;-88
2023/01/26 00:07:07;;;;;;;;;;;4.10;76.90;;;;;;5076890;28;20004;-88
2023/01/26 00:09:33;;;;;;;;;;;4.20;76.50;;;;;;5094874;28;19943;-88
2023/01/26 00:11:58;;;;;;;;;;;4.20;76.60;;;;;;5097155;28;19942;-88
2023/01/26 00:14:24;;;;;;;;;;;4.00;77.40;;;;;;5075405;28;20485;-88
2023/01/26 00:16:49;;;;;;;;;;;3.90;77.70;;;;;;5095801;28;20548;-88
2023/01/26 00:19:15;;;;;;;;;;;4.00;77.40;;;;;;5081315;28;19952;-88
2023/01/26 00:21:40;;;;;;;;;;;4.10;77.00;;;;;;5076710;28;19937;-88
2023/01/26 00:24:06;;;;;;;;;;;4.10;77.20;;;;;;5076656;28;19984;-88
2023/01/26 00:26:32;;;;;;;;;;;4.10;77.40;;;;;;5076545;28;19935;-88
2023/01/26 00:28:58;;;;;;;;;;;4.00;77.40;;;;;;5088977;28;20352;-89
2023/01/26 00:31:25;;;;;;;;;;;4.00;77.70;;;;;;5096775;28;19936;-88
2023/01/26 00:33:51;;;;;;;;;;;3.90;78.40;;;;;;5096703;28;20031;-88
2023/01/26 00:36:17;;;;;;;;;;;3.80;78.90;;;;;;5078543;28;19987;-88
2023/01/26 00:38:42;;;;;;;;;;;3.70;78.90;;;;;;5091518;28;20039;-88
2023/01/26 00:41:08;;;;;;;;;;;3.70;79.10;;;;;;5096330;28;19950;-88
2023/01/26 00:43:33;;;;;;;;;;;4.00;77.90;;;;;;5096520;28;19938;-88
2023/01/26 00:45:59;;;;;;;;;;;4.20;76.90;;;;;;5096467;28;20279;-88
2023/01/26 00:48:24;;;;;;;;;;;4.40;76.00;;;;;;5088589;28;19962;-87
2023/01/26 00:50:50;;;;;;;;;;;4.50;75.60;;;;;;5076138;28;19938;-88
2023/01/26 00:53:16;;;;;;;;;;;4.60;75.40;;;;;;5076023;28;19974;-88
2023/01/26 00:55:41;;;;;;;;;;;4.60;75.00;;;;;;5075980;28;20130;-88
2023/01/26 00:58:07;;;;;;;;;;;4.70;74.50;;;;;;5080456;28;19944;-88
2023/01/26 01:00:33;;;;;;;;;;;4.90;74.60;;;;;;5096267;28;19987;-88
2023/01/26 01:02:59;;;;;;;;;;;5.00;74.20;;;;;;5096187;28;19947;-88
2023/01/26 01:05:26;;;;;;;;;;;5.00;74.20;;;;;;5096160;28;19937;-88
2023/01/26 01:07:51;;;;;;;;;;;5.00;74.10;;;;;;5093154;28;19945;-88
2023/01/26 01:10:17;;;;;;;;;;;5.00;73.90;;;;;;5075714;28;20271;-88
2023/01/26 01:12:43;;;;;;;;;;;4.90;74.00;;;;;;5075738;28;20407;-88
2023/01/26 01:15:09;;;;;;;;;;;4.90;73.90;;;;;;5090104;22;20436;-88
2023/01/26 01:17:37;;;;;;;;;;;5.00;73.90;;;;;;5094871;28;19977;-88
2023/01/26 01:20:05;;;;;;;;;;;5.00;73.80;;;;;;5056646;28;19959;-88
2023/01/26 01:22:33;;;;;;;;;;;5.00;74.20;;;;;;5074750;28;22976;-88
2023/01/26 01:24:59;;;;;;;;;;;5.00;74.00;;;;;;5075566;28;19962;-88
2023/01/26 01:27:24;;;;;;;;;;;5.00;74.30;;;;;;5075360;28;20421;-88
2023/01/26 01:29:50;;;;;;;;;;;4.90;74.70;;;;;;5061547;28;20379;-88
2023/01/26 01:32:16;;;;;;;;;;;4.80;74.70;;;;;;5055245;28;19960;-88
2023/01/26 01:34:41;;;;;;;;;;;4.80;74.80;;;;;;5055376;28;20311;-88
2023/01/26 01:37:07;;;;;;;;;;;4.70;75.10;;;;;;5055278;28;20037;-88
2023/01/26 01:39:32;;;;;;;;;;;4.60;75.10;;;;;;5066051;28;20050;-88
2023/01/26 01:41:58;;;;;;;;;;;4.50;74.40;;;;;;5075218;28;19946;-88
2023/01/26 01:44:24;;;;;;;;;;;4.40;74.60;;;;;;5075199;28;19942;-88
2023/01/26 01:46:57;;;;;;;;;;;4.40;74.70;;;;;;5075074;28;19986;-88
2023/01/26 01:49:32;;;;;;;;;;;4.30;74.80;;;;;;5065560;28;20122;-89
2023/01/26 01:52:03;;;;;;;;;;;4.30;74.70;;;;;;5056133;28;19937;-88
2023/01/26 01:54:36;;;;;;;;;;;4.30;74.70;;;;;;5074966;28;19938;-88
2023/01/26 01:57:03;;;;;;;;;;;4.30;75.00;;;;;;5074861;28;20031;-88
2023/01/26 01:59:29;;;;;;;;;;;4.20;75.20;;;;;;5073198;28;20007;-88
2023/01/26 02:01:55;;;;;;;;;;;4.10;75.10;;;;;;5074512;28;20446;-88
2023/01/26 02:04:21;;;;;;;;;;;4.10;75.50;;;;;;5074787;28;19979;-89
2023/01/26 02:06:51;;;;;;;;;;;4.10;76.40;;;;;;5074647;28;19986;-88
2023/01/26 02:12:05;;;;;;;;;;;4.00;77.30;;;;;;5074958;28;19987;-88
2023/01/26 02:14:31;;;;;;;;;;;4.00;77.30;;;;;;5074227;28;20058;-88
2023/01/26 02:16:57;;;;;;;;;;;3.90;77.80;;;;;;5074439;28;19947;-88
2023/01/26 02:19:31;;;;;;;;;;;4.00;78.10;;;;;;5065505;28;20410;-88
2023/01/26 02:21:59;;;;;;;;;;;4.00;77.60;;;;;;5053892;28;19975;-88
2023/01/26 02:24:28;;;;;;;;;;;4.10;77.70;;;;;;5054412;28;19941;-88
2023/01/26 02:26:54;;;;;;;;;;;4.10;77.60;;;;;;5054253;28;19938;-88
2023/01/26 02:29:19;;;;;;;;;;;4.20;77.00;;;;;;5055333;28;19945;-88
2023/01/26 02:31:46;;;;;;;;;;;4.20;76.70;;;;;;5054248;28;19970;-88
2023/01/26 02:34:11;;;;;;;;;;;4.40;76.10;;;;;;5054194;28;19937;-88
2023/01/26 02:36:37;;;;;;;;;;;4.50;75.70;;;;;;5054114;28;19938;-87
2023/01/26 02:39:11;;;;;;;;;;;4.60;75.60;;;;;;5068152;28;19946;-88
2023/01/26 02:44:21;;;;;;;;;;;4.70;75.30;;;;;;5074276;28;19987;-88
2023/01/26 02:46:47;;;;;;;;;;;4.70;74.80;;;;;;5073806;28;19940;-88
2023/01/26 02:51:56;;;;;;;;;;;4.90;74.10;;;;;;5053852;28;19950;-88
2023/01/26 02:57:06;;;;;;;;;;;4.90;73.90;;;;;;5053692;28;19947;-88
2023/01/26 02:59:31;;;;;;;;;;;4.90;74.30;;;;;;5071029;28;20036;-88
2023/01/26 03:01:57;;;;;;;;;;;4.90;74.00;;;;;;5073633;28;19944;-88
2023/01/26 03:04:23;;;;;;;;;;;5.00;73.90;;;;;;5073587;28;20460;-87
2023/01/26 03:06:48;;;;;;;;;;;5.00;74.50;;;;;;5073527;28;20031;-88
2023/01/26 03:09:14;;;;;;;;;;;4.90;74.70;;;;;;5058432;28;19942;-88
2023/01/26 03:11:42;;;;;;;;;;;4.90;74.50;;;;;;5053520;28;20043;-88
2023/01/26 03:14:08;;;;;;;;;;;5.00;74.10;;;;;;5053368;28;19981;-87
2023/01/26 03:16:34;;;;;;;;;;;4.90;74.10;;;;;;5053476;28;19937;-88
2023/01/26 03:29:41;;;;;;;;;;;4.70;75.80;;;;;;5055386;28;20000;-88
2023/01/26 03:32:06;;;;;;;;;;;4.70;75.50;;;;;;5035316;28;20356;-88
2023/01/26 03:34:32;;;;;;;;;;;4.70;75.50;;;;;;5052358;28;20402;-88
2023/01/26 03:36:58;;;;;;;;;;;4.80;75.20;;;;;;5061587;28;20398;-88
2023/01/26 03:56:16;;;;;;;;;;;5.40;72.00;;;;;;5054468;28;20027;-88
2023/01/26 03:58:43;;;;;;;;;;;5.30;72.00;;;;;;5065821;28;19949;-88
2023/01/26 04:01:09;;;;;;;;;;;5.40;71.80;;;;;;5052885;28;19941;-88
2023/01/26 04:09:03;;;;;;;;;;;5.40;72.00;;;;;;5061557;28;20004;-88
2023/01/26 04:11:29;;;;;;;;;;;5.30;72.50;;;;;;5072866;28;19989;-88
2023/01/26 04:22:07;;;;;;;;;;;5.20;73.80;;;;;;5053062;28;19942;-88
2023/01/26 04:24:32;;;;;;;;;;;5.20;74.30;;;;;;5052749;28;19941;-88
2023/01/26 04:26:58;;;;;;;;;;;5.20;74.60;;;;;;5052569;28;20376;-88
2023/01/26 04:29:24;;;;;;;;;;;5.10;75.00;;;;;;5063917;28;19950;-87
2023/01/26 04:31:49;;;;;;;;;;;5.00;74.70;;;;;;5072663;28;19942;-87
2023/01/26 04:34:15;;;;;;;;;;;5.00;74.40;;;;;;5072643;28;20323;-88
2023/01/26 04:36:41;;;;;;;;;;;5.00;74.90;;;;;;5072624;28;19947;-88
2023/01/26 04:39:06;;;;;;;;;;;5.00;74.90;;;;;;5063413;28;19981;-88
2023/01/26 04:41:33;;;;;;;;;;;5.00;75.30;;;;;;5052498;28;20364;-87
2023/01/26 04:43:58;;;;;;;;;;;5.00;74.90;;;;;;5052488;28;20557;-88
2023/01/26 04:46:24;;;;;;;;;;;5.10;74.60;;;;;;5055315;28;20059;-88
2023/01/26 04:48:49;;;;;;;;;;;5.10;73.90;;;;;;5062489;28;19956;-88
2023/01/26 04:51:16;;;;;;;;;;;5.10;73.90;;;;;;5076091;28;19948;-88
2023/01/26 04:53:42;;;;;;;;;;;5.10;74.10;;;;;;5076286;28;20024;-88
2023/01/26 04:56:13;;;;;;;;;;;5.10;74.30;;;;;;5075912;28;20313;-88
2023/01/26 04:58:39;;;;;;;;;;;5.10;74.20;;;;;;5071228;28;19942;-88
2023/01/26 05:01:04;;;;;;;;;;;5.10;74.20;;;;;;5055944;28;20286;-87
2023/01/26 05:03:31;;;;;;;;;;;5.10;74.30;;;;;;5055942;28;19947;-88
2023/01/26 05:05:56;;;;;;;;;;;5.10;74.60;;;;;;5055834;28;19937;-87
2023/01/26 05:08:22;;;;;;;;;;;5.10;74.80;;;;;;5057627;28;20061;-88
2023/01/26 05:10:48;;;;;;;;;;;5.10;75.00;;;;;;5075528;28;19941;-88
2023/01/26 05:13:13;;;;;;;;;;;5.10;75.30;;;;;;5075589;28;19941;-88
2023/01/26 05:15:39;;;;;;;;;;;5.00;75.40;;;;;;5057428;28;20372;-88
2023/01/26 05:18:05;;;;;;;;;;;5.10;75.30;;;;;;5075970;28;19941;-88
2023/01/26 05:20:31;;;;;;;;;;;5.10;75.20;;;;;;5055921;28;19955;-88
2023/01/26 05:22:56;;;;;;;;;;;5.10;75.40;;;;;;5055770;28;20307;-88
2023/01/26 05:25:22;;;;;;;;;;;5.10;75.60;;;;;;5055527;28;20315;-88
2023/01/26 05:27:48;;;;;;;;;;;5.00;75.50;;;;;;5055425;28;19958;-88
2023/01/26 05:30:13;;;;;;;;;;;5.00;75.60;;;;;;5071535;28;19949;-88
2023/01/26 05:32:39;;;;;;;;;;;5.00;75.60;;;;;;5075216;28;19944;-88
2023/01/26 05:35:05;;;;;;;;;;;5.00;75.80;;;;;;5074621;28;19936;-88
2023/01/26 05:37:31;;;;;;;;;;;5.00;75.90;;;;;;5066435;28;19978;-88
2023/01/26 05:39:56;;;;;;;;;;;5.00;76.00;;;;;;5055046;28;20022;-88
2023/01/26 05:42:22;;;;;;;;;;;5.00;76.10;;;;;;5055052;28;19948;-88
2023/01/26 05:44:48;;;;;;;;;;;5.00;76.30;;;;;;5055429;28;19994;-88
2023/01/26 05:47:13;;;;;;;;;;;5.00;76.40;;;;;;5060338;28;19976;-88
2023/01/26 05:49:41;;;;;;;;;;;5.00;76.70;;;;;;5075123;28;19950;-88
2023/01/26 05:52:08;;;;;;;;;;;4.90;77.70;;;;;;5074832;28;19950;-88
2023/01/26 05:54:34;;;;;;;;;;;4.90;77.70;;;;;;5067626;28;19944;-88
2023/01/26 05:56:59;;;;;;;;;;;4.90;77.70;;;;;;5063375;28;19946;-88
2023/01/26 05:59:25;;;;;;;;;;;4.90;77.70;;;;;;5069544;28;20418;-88
2023/01/26 06:01:50;;;;;;;;;;;5.00;77.20;;;;;;5062643;28;19991;-88
2023/01/26 06:04:16;;;;;;;;;;;5.00;77.00;;;;;;5065792;28;19952;-88
2023/01/26 06:06:41;;;;;;;;;;;5.00;77.10;;;;;;5068326;28;19953;-88
2023/01/26 06:09:07;;;;;;;;;;;5.00;77.20;;;;;;5066395;28;19966;-88
2023/01/26 06:11:32;;;;;;;;;;;4.90;77.40;;;;;;5071568;28;19991;-88
2023/01/26 06:13:58;;;;;;;;;;;5.00;77.60;;;;;;5066896;28;19973;-88
2023/01/26 06:16:23;;;;;;;;;;;5.00;77.40;;;;;;5061924;28;20004;-88
2023/01/26 06:18:49;;;;;;;;;;;5.10;76.40;;;;;;5063891;28;19948;-88
2023/01/26 06:21:15;;;;;;;;;;;5.10;76.00;;;;;;5070258;28;19946;-88
2023/01/26 06:23:40;;;;;;;;;;;5.10;76.30;;;;;;5063246;28;19980;-89
2023/01/26 06:26:06;;;;;;;;;;;5.10;76.50;;;;;;5059720;28;20045;-89
2023/01/26 06:28:31;;;;;;;;;;;5.00;76.70;;;;;;5061158;28;20471;-89
2023/01/26 06:31:00;;;;;;;;;;;5.00;76.90;;;;;;5058288;28;19951;-88
2023/01/26 06:33:26;;;;;;;;;;;5.20;77.00;;;;;;5062697;28;19942;-89
2023/01/26 06:35:53;;;;;;;;;;;5.20;77.40;;;;;;5060654;28;19942;-88
2023/01/26 06:41:21;;;;;;;;;;;5.00;77.60;;;;;;5063613;28;20006;-89
2023/01/26 06:43:47;;;;;;;;;;;4.90;77.70;;;;;;5061041;28;19941;-88
2023/01/26 06:46:13;;;;;;;;;;;4.70;77.10;;;;;;5065597;28;19956;-88
2023/01/26 06:48:39;;;;;;;;;;;4.50;77.90;;;;;;5067176;28;20036;-88
2023/01/26 06:51:05;;;;;;;;;;;4.40;78.50;;;;;;5061936;28;19943;-88
2023/01/26 06:53:36;;;;;;;;;;;4.30;78.60;;;;;;5058370;28;19960;-88
2023/01/26 06:56:02;;;;;;;;;;;4.30;78.90;;;;;;5067112;28;20063;-88
2023/01/26 06:58:27;;;;;;;;;;;4.30;79.30;;;;;;5057185;28;20033;-88
2023/01/26 07:00:53;;;;;;;;;;;4.40;78.80;;;;;;5048407;28;20301;-88
2023/01/26 07:03:19;;;;;;;;;;;4.20;79.00;;;;;;5059214;28;20007;-88
2023/01/26 07:05:44;;;;;;;;;;;4.20;79.80;;;;;;5063697;28;20028;-88
2023/01/26 07:08:10;;;;;;;;;;;4.10;80.00;;;;;;5066380;28;19991;-88
2023/01/26 07:10:35;;;;;;;;;;;4.00;80.40;;;;;;5063484;28;20042;-88
2023/01/26 07:13:02;;;;;;;;;;;4.00;80.20;;;;;;5062152;28;20413;-88
2023/01/26 07:15:27;;;;;;;;;;;3.90;80.40;;;;;;5067405;28;19968;-89
2023/01/26 07:17:53;;;;;;;;;;;4.00;80.30;;;;;;5060549;28;19949;-88
2023/01/26 07:20:19;;;;;;;;;;;4.00;79.80;;;;;;5042462;28;19936;-88
2023/01/26 07:22:44;;;;;;;;;;;3.90;80.00;;;;;;5061039;28;19940;-88
2023/01/26 07:25:10;;;;;;;;;;;3.80;80.80;;;;;;5066728;28;20544;-88
2023/01/26 07:27:35;;;;;;;;;;;3.80;80.90;;;;;;5046623;28;20438;-88
2023/01/26 07:30:01;;;;;;;;;;;3.70;80.90;;;;;;5062829;28;19946;-88
2023/01/26 07:32:26;;;;;;;;;;;3.70;81.00;;;;;;5058986;28;20376;-88
2023/01/26 07:34:52;;;;;;;;;;;3.60;81.20;;;;;;5057888;28;20566;-88
2023/01/26 07:37:17;;;;;;;;;;;3.60;81.50;;;;;;5066072;28;19972;-88
2023/01/26 07:39:43;;;;;;;;;;;3.80;81.50;;;;;;5062590;28;20031;-89
2023/01/26 07:42:09;;;;;;;;;;;4.10;80.90;;;;;;5060243;28;19948;-88
2023/01/26 07:44:34;;;;;;;;;;;4.10;80.70;;;;;;5059241;28;19961;-88
2023/01/26 07:47:00;;;;;;;;;;;4.40;79.70;;;;;;5065824;28;19945;-89
2023/01/26 07:49:25;;;;;;;;;;;4.60;78.40;;;;;;5065575;28;19945;-88
2023/01/26 07:51:51;;;;;;;;;;;4.80;77.40;;;;;;5067809;28;19950;-89
2023/01/26 07:54:17;;;;;;;;;;;4.80;76.40;;;;;;5057838;28;19940;-88
2023/01/26 07:56:43;;;;;;;;;;;4.70;76.90;;;;;;5065170;28;19945;-88
2023/01/26 07:59:09;;;;;;;;;;;4.60;77.50;;;;;;5069084;28;19952;-88
2023/01/26 08:01:35;;;;;;;;;;;4.60;76.50;;;;;;5054684;28;19946;-88
2023/01/26 08:04:00;;;;;;;;;;;4.70;76.50;;;;;;5065115;28;19950;-88
2023/01/26 08:06:26;;;;;;;;;;;4.70;76.10;;;;;;5061617;28;19943;-88
2023/01/26 08:08:54;;;;;;;;;;;4.80;75.50;;;;;;5058939;28;19963;-88
2023/01/26 08:11:22;;;;;;;;;;;4.90;75.20;;;;;;5064693;28;19940;-88
2023/01/26 08:13:47;;;;;;;;;;;4.90;74.90;;;;;;5060810;28;20014;-88
2023/01/26 08:16:13;;;;;;;;;;;4.90;75.10;;;;;;5057066;28;19973;-88
2023/01/26 08:18:39;;;;;;;;;;;5.00;74.90;;;;;;5058422;28;20470;-88
2023/01/26 08:21:05;;;;;;;;;;;5.20;74.30;;;;;;5063870;28;19997;-88
2023/01/26 08:23:30;;;;;;;;;;;5.30;74.00;;;;;;5065435;28;19941;-88
2023/01/26 08:26:00;;;;;;;;;;;5.40;74.10;;;;;;5067983;28;19952;-88
2023/01/26 08:28:25;;;;;;;;;;;5.40;74.30;;;;;;5070837;28;19958;-88
2023/01/26 08:30:51;;;;;;;;;;;5.50;73.60;;;;;;5062929;28;20461;-88
2023/01/26 08:33:16;;;;;;;;;;;5.50;73.60;;;;;;5067836;28;19964;-88
2023/01/26 08:35:42;;;;;;;;;;;5.70;73.10;;;;;;5058616;28;19949;-88
2023/01/26 08:38:07;;;;;;;;;;;5.70;72.50;;;;;;5066509;28;19992;-88
2023/01/26 08:40:33;;;;;;;;;;;5.70;72.00;;;;;;5060801;28;20427;-88
2023/01/26 08:43:00;;;;;;;;;;;5.70;70.70;;;;;;5066749;28;19956;-88
2023/01/26 08:45:25;;;;;;;;;;;5.70;70.60;;;;;;5061078;28;20039;-88
2023/01/26 08:47:51;;;;;;;;;;;5.70;70.50;;;;;;5060992;28;20040;-88
2023/01/26 08:50:16;;;;;;;;;;;5.80;69.00;;;;;;5064317;28;19954;-88
2023/01/26 08:52:42;;;;;;;;;;;5.80;69.40;;;;;;5068637;28;20018;-88
2023/01/26 08:55:08;;;;;;;;;;;5.80;69.90;;;;;;5063696;28;19948;-89
2023/01/26 08:57:34;;;;;;;;;;;5.80;69.60;;;;;;5068214;28;19963;-88
2023/01/26 08:59:59;;;;;;;;;;;5.90;69.40;;;;;;5059274;28;19947;-88
2023/01/26 09:02:25;;;;;;;;;;;6.00;69.60;;;;;;5067341;28;20305;-88
2023/01/26 09:04:50;;;;;;;;;;;6.10;69.40;;;;;;5047403;28;19943;-88
2023/01/26 09:07:16;;;;;;;;;;;6.30;69.10;;;;;;5066549;28;20312;-88
2023/01/26 09:09:41;;;;;;;;;;;6.40;68.40;;;;;;5060184;28;19946;-88
2023/01/26 09:12:07;;;;;;;;;;;6.40;68.40;;;;;;5063959;28;19945;-88
2023/01/26 09:14:32;;;;;;;;;;;6.40;67.70;;;;;;5099097;22;19986;-88
2023/01/26 09:16:58;;;;;;;;;;;6.30;69.10;;;;;;5105392;28;19949;-88
2023/01/26 09:19:23;;;;;;;;;;;6.30;68.30;;;;;;5097435;28;19958;-88
2023/01/26 09:21:52;;;;;;;;;;;6.40;68.40;;;;;;5101893;28;20305;-88
2023/01/26 09:24:19;;;;;;;;;;;6.40;70.10;;;;;;5097651;28;19958;-88
2023/01/26 09:26:44;;;;;;;;;;;6.50;70.90;;;;;;5101817;28;19985;-88
2023/01/26 09:29:10;;;;;;;;;;;6.60;70.60;;;;;;5103226;28;20371;-89
2023/01/26 09:31:35;;;;;;;;;;;6.70;70.00;;;;;;5088018;28;19972;-88
2023/01/26 09:34:01;;;;;;;;;;;6.90;69.90;;;;;;5098482;28;20603;-88
2023/01/26 09:36:26;;;;;;;;;;;7.10;70.00;;;;;;5098764;28;20503;-88
2023/01/26 09:38:52;;;;;;;;;;;7.30;68.90;;;;;;5102257;28;19943;-88
2023/01/26 09:41:30;;;;;;;;;;;7.30;67.90;;;;;;5099387;27;20288;-88
2023/01/26 09:43:56;;;;;;;;;;;7.40;67.30;;;;;;5104230;28;20005;-88
2023/01/26 09:46:24;;;;;;;;;;;7.50;67.20;;;;;;5098588;28;19950;-88
2023/01/26 09:49:05;;;;;;;;;;;7.50;66.90;;;;;;5104143;28;19957;-88
2023/01/26 09:51:36;;;;;;;;;;;7.50;66.00;;;;;;5094980;28;19946;-88
2023/01/26 09:54:25;;;;;;;;;;;7.50;65.90;;;;;;5080570;28;20006;-89
2023/01/26 09:56:52;;;;;;;;;;;7.50;65.90;;;;;;5089057;28;19948;-88
2023/01/26 09:59:37;;;;;;;;;;;7.50;64.90;;;;;;5098250;28;19974;-88
2023/01/26 10:02:11;;;;;;;;;;;7.40;64.70;;;;;;5096934;28;20320;-89
2023/01/26 10:04:39;;;;;;;;;;;7.50;65.40;;;;;;5095646;28;19989;-88
2023/01/26 10:07:08;;;;;;;;;;;7.60;64.50;;;;;;5097019;28;19950;-88
2023/01/26 10:09:35;;;;;;;;;;;7.80;64.80;;;;;;5094627;28;19947;-88
2023/01/26 10:12:03;;;;;;;;;;;7.90;63.60;;;;;;5098313;28;19946;-88
2023/01/26 10:14:34;;;;;;;;;;;8.30;61.10;;;;;;5102205;28;19976;-88
2023/01/26 10:17:02;;;;;;;;;;;8.40;60.70;;;;;;5101363;28;19943;-89
2023/01/26 10:19:30;;;;;;;;;;;8.40;60.80;;;;;;5095744;28;19951;-89
2023/01/26 10:21:58;;;;;;;;;;;8.40;61.60;;;;;;5092889;28;19963;-89
2023/01/26 10:24:23;;;;;;;;;;;8.40;61.20;;;;;;5101538;28;20400;-88
2023/01/26 10:26:50;;;;;;;;;;;8.60;60.60;;;;;;5096018;28;20051;-88
2023/01/26 10:29:16;;;;;;;;;;;8.70;60.10;;;;;;5096734;28;19955;-89
2023/01/26 10:31:43;;;;;;;;;;;8.70;59.70;;;;;;5098037;28;20318;-89
2023/01/26 10:34:16;;;;;;;;;;;8.80;60.50;;;;;;5100153;28;19941;-89
2023/01/26 10:36:43;;;;;;;;;;;8.80;59.60;;;;;;5078923;28;19943;-89
2023/01/26 10:39:15;;;;;;;;;;;8.80;58.90;;;;;;5103406;28;19948;-89
2023/01/26 10:41:54;;;;;;;;;;;8.90;58.20;;;;;;5098389;28;20290;-89
2023/01/26 10:44:37;;;;;;;;;;;8.80;58.20;;;;;;5097342;28;19944;-89
2023/01/26 10:47:14;;;;;;;;;;;8.80;59.20;;;;;;5096694;28;19987;-88
2023/01/26 10:49:39;;;;;;;;;;;8.90;59.10;;;;;;5096480;28;19941;-89
2023/01/26 10:52:07;;;;;;;;;;;9.00;57.20;;;;;;5096541;28;19950;-89
2023/01/26 10:54:34;;;;;;;;;;;9.20;55.80;;;;;;5099207;28;20050;-88
2023/01/26 10:57:02;;;;;;;;;;;9.30;56.80;;;;;;5096708;28;19950;-90
2023/01/26 10:59:29;;;;;;;;;;;9.30;55.60;;;;;;5098834;28;19950;-89
2023/01/26 11:02:00;;;;;;;;;;;9.60;54.20;;;;;;5093687;28;19958;-88
2023/01/26 11:04:25;;;;;;;;;;;9.70;55.20;;;;;;5098242;28;19944;-88
2023/01/26 11:06:51;;;;;;;;;;;9.60;54.80;;;;;;5098509;28;19950;-88
2023/01/26 11:09:23;;;;;;;;;;;9.60;56.10;;;;;;5101267;28;20029;-88
2023/01/26 11:11:57;;;;;;;;;;;9.60;55.20;;;;;;5096702;28;19941;-88
2023/01/26 11:14:22;;;;;;;;;;;9.60;54.50;;;;;;5099485;28;19973;-89
2023/01/26 11:16:54;;;;;;;;;;;9.60;53.80;;;;;;5092635;28;19996;-88
2023/01/26 11:19:39;;;;;;;;;;;9.50;53.30;;;;;;5103592;28;20386;-89
2023/01/26 11:22:07;;;;;;;;;;;9.80;52.00;;;;;;5093535;28;20011;-89
2023/01/26 11:24:39;;;;;;;;;;;10.10;51.30;;;;;;5093554;28;19965;-89
2023/01/26 11:27:10;;;;;;;;;;;10.20;51.00;;;;;;5093400;28;19942;-89
2023/01/26 11:29:36;;;;;;;;;;;10.20;52.90;;;;;;5075332;28;19998;-88
2023/01/26 11:32:21;;;;;;;;;;;10.10;52.50;;;;;;5093371;28;20036;-88
2023/01/26 11:35:05;;;;;;;;;;;10.10;51.50;;;;;;5093393;28;20027;-89
2023/01/26 11:37:31;;;;;;;;;;;10.00;51.40;;;;;;5093348;28;19962;-89
2023/01/26 11:40:09;;;;;;;;;;;10.30;53.40;;;;;;5093547;28;20383;-89
2023/01/26 11:42:35;;;;;;;;;;;10.50;51.50;;;;;;5093210;28;19939;-89
2023/01/26 11:45:19;;;;;;;;;;;10.60;49.30;;;;;;5093261;28;19944;-88
2023/01/26 11:47:48;;;;;;;;;;;10.40;47.80;;;;;;5093065;28;19963;-89
2023/01/26 11:50:18;;;;;;;;;;;10.00;49.40;;;;;;5093219;28;20049;-89
2023/01/26 11:52:58;;;;;;;;;;;10.10;50.60;;;;;;5093075;28;19960;-88
2023/01/26 11:55:29;;;;;;;;;;;10.20;50.70;;;;;;5111656;28;19947;-89
2023/01/26 11:58:01;;;;;;;;;;;10.50;50.20;;;;;;5113413;28;20029;-89
2023/01/26 12:00:53;;;;;;;;;;;10.90;50.50;;;;;;5113661;28;19942;-89
2023/01/26 12:03:51;;;;;;;;;;;11.30;49.90;;;;;;5108411;28;20027;-89
2023/01/26 12:06:17;;;;;;;;;;;12.10;49.20;;;;;;5055540;28;19945;-89
2023/01/26 12:08:50;;;;;;;;;;;12.80;46.00;;;;;;5100908;28;20012;-89
2023/01/26 12:11:22;;;;;;;;;;;13.00;44.20;;;;;;5086033;28;20441;-89
2023/01/26 12:13:55;;;;;;;;;;;13.30;42.30;;;;;;5105289;28;20032;-89
2023/01/26 12:16:39;;;;;;;;;;;13.50;41.50;;;;;;5103469;28;19947;-89
2023/01/26 12:19:10;;;;;;;;;;;13.90;40.30;;;;;;5092742;28;19945;-89
2023/01/26 12:21:37;;;;;;;;;;;14.30;40.10;;;;;;5098336;28;19972;-89
2023/01/26 12:24:04;;;;;;;;;;;14.00;40.00;;;;;;5101404;28;19946;-88
2023/01/26 12:26:34;;;;;;;;;;;14.10;40.60;;;;;;5093645;28;19967;-89
2023/01/26 12:29:13;;;;;;;;;;;14.20;39.80;;;;;;5095223;28;19998;-89
2023/01/26 12:31:45;;;;;;;;;;;14.10;39.00;;;;;;5097786;28;19947;-89
2023/01/26 12:34:12;;;;;;;;;;;14.00;38.60;;;;;;5093169;28;19949;-89
2023/01/26 12:36:43;;;;;;;;;;;14.60;38.40;;;;;;5099398;28;19940;-89
2023/01/26 12:39:09;;;;;;;;;;;15.80;36.60;;;;;;5099257;28;20364;-89
2023/01/26 12:41:34;;;;;;;;;;;16.90;35.20;;;;;;5099070;28;20041;-89
2023/01/26 12:44:18;;;;;;;;;;;17.30;35.00;;;;;;5096895;28;20424;-89
2023/01/26 12:46:48;;;;;;;;;;;17.40;35.30;;;;;;5096458;28;19967;-89
2023/01/26 12:49:21;;;;;;;;;;;17.10;35.10;;;;;;5092196;28;19963;-89
2023/01/26 12:51:49;;;;;;;;;;;17.00;34.80;;;;;;5105473;28;19944;-89
2023/01/26 12:54:15;;;;;;;;;;;16.40;35.50;;;;;;5102141;28;19951;-89
2023/01/26 12:56:46;;;;;;;;;;;16.20;35.70;;;;;;5104578;28;19965;-88
2023/01/26 12:59:16;;;;;;;;;;;15.90;34.40;;;;;;5097123;28;20019;-88
2023/01/26 13:01:42;;;;;;;;;;;15.80;35.80;;;;;;5093867;28;20409;-88
2023/01/26 13:04:09;;;;;;;;;;;15.10;36.50;;;;;;5092638;28;19994;-88
2023/01/26 13:06:35;;;;;;;;;;;15.10;36.70;;;;;;5103361;28;20044;-88
2023/01/26 13:09:18;;;;;;;;;;;15.20;37.90;;;;;;5098762;28;20016;-88
2023/01/26 13:11:43;;;;;;;;;;;15.10;36.00;;;;;;5104218;28;20287;-89
2023/01/26 13:14:27;;;;;;;;;;;15.30;36.80;;;;;;5101427;28;19995;-88
2023/01/26 13:16:53;;;;;;;;;;;15.30;37.20;;;;;;5098945;28;19944;-89
2023/01/26 13:19:37;;;;;;;;;;;15.70;35.80;;;;;;5098172;28;19967;-89
2023/01/26 13:22:03;;;;;;;;;;;16.10;35.90;;;;;;5104539;28;20593;-89
2023/01/26 13:24:28;;;;;;;;;;;16.30;35.00;;;;;;5107099;28;19943;-89
2023/01/26 13:26:55;;;;;;;;;;;17.10;32.90;;;;;;5098407;28;19964;-89
2023/01/26 13:29:23;;;;;;;;;;;17.80;32.80;;;;;;5106155;28;19955;-89
2023/01/26 13:31:49;;;;;;;;;;;17.10;33.10;;;;;;5097359;28;19947;-88
2023/01/26 13:34:15;;;;;;;;;;;16.30;33.20;;;;;;5107158;28;19948;-88
2023/01/26 13:36:43;;;;;;;;;;;15.80;34.60;;;;;;5102300;28;19989;-89
2023/01/26 13:39:15;;;;;;;;;;;15.80;34.20;;;;;;5104550;28;20382;-89
2023/01/26 13:41:46;;;;;;;;;;;15.70;35.40;;;;;;5101474;28;19945;-88
2023/01/26 13:44:50;;;;;;;;;;;15.40;34.90;;;;;;5102410;28;20013;-89
2023/01/26 13:47:21;;;;;;;;;;;15.80;34.20;;;;;;5057032;28;19949;-88
2023/01/26 13:49:49;;;;;;;;;;;15.80;34.40;;;;;;5063391;28;20434;-88
2023/01/26 13:52:22;;;;;;;;;;;15.80;35.50;;;;;;5082000;28;19962;-88
2023/01/26 13:54:48;;;;;;;;;;;15.40;35.90;;;;;;5104033;28;19983;-88
2023/01/26 13:57:21;;;;;;;;;;;15.20;35.50;;;;;;5103535;28;19951;-88
2023/01/26 13:59:48;;;;;;;;;;;15.10;35.80;;;;;;5089785;28;20343;-88
2023/01/26 14:02:29;;;;;;;;;;;15.10;35.60;;;;;;5105540;28;20456;-88
2023/01/26 14:04:57;;;;;;;;;;;15.30;35.90;;;;;;5103083;28;20402;-89
2023/01/26 14:07:30;;;;;;;;;;;15.30;35.90;;;;;;5099455;28;20466;-88
2023/01/26 14:09:56;;;;;;;;;;;15.40;35.70;;;;;;5097178;28;19960;-88
2023/01/26 14:12:24;;;;;;;;;;;15.40;35.30;;;;;;5097148;28;19984;-88
2023/01/26 14:14:58;;;;;;;;;;;15.80;35.00;;;;;;5106194;28;20408;-88
2023/01/26 14:17:46;;;;;;;;;;;15.80;34.90;;;;;;5102447;28;19940;-89
2023/01/26 14:20:35;;;;;;;;;;;16.20;34.30;;;;;;5090753;28;20437;-89
2023/01/26 14:23:14;;;;;;;;;;;17.40;33.50;;;;;;5091680;28;19947;-88
2023/01/26 14:25:48;;;;;;;;;;;17.40;32.90;;;;;;5101598;28;19965;-88
2023/01/26 14:28:15;;;;;;;;;;;17.50;33.00;;;;;;5114493;28;19963;-88
2023/01/26 14:30:41;;;;;;;;;;;16.10;35.20;;;;;;5106093;28;19973;-89
2023/01/26 14:33:11;;;;;;;;;;;16.00;35.50;;;;;;5102172;28;20026;-88
2023/01/26 14:35:37;;;;;;;;;;;16.10;36.00;;;;;;5104892;28;19936;-88
2023/01/26 14:38:04;;;;;;;;;;;15.80;35.60;;;;;;5105414;28;19954;-88
2023/01/26 14:40:30;;;;;;;;;;;16.00;35.70;;;;;;5100915;28;20391;-88
2023/01/26 14:42:56;;;;;;;;;;;15.90;36.80;;;;;;5110578;28;19951;-88
2023/01/26 14:45:28;;;;;;;;;;;16.10;36.10;;;;;;5083055;28;19943;-89
2023/01/26 14:47:54;;;;;;;;;;;16.50;35.30;;;;;;5103264;28;20003;-89
2023/01/26 14:50:23;;;;;;;;;;;16.00;34.70;;;;;;5101218;28;19947;-89
2023/01/26 14:52:48;;;;;;;;;;;16.00;34.80;;;;;;5099356;28;20427;-89
2023/01/26 14:55:17;;;;;;;;;;;16.10;35.30;;;;;;5100827;28;19944;-89
2023/01/26 14:57:43;;;;;;;;;;;16.90;33.70;;;;;;5105502;28;19942;-89
2023/01/26 15:00:38;;;;;;;;;;;16.90;33.90;;;;;;5098388;28;20052;-89
2023/01/26 15:03:06;;;;;;;;;;;17.60;33.70;;;;;;5085999;28;19991;-89
2023/01/26 15:05:33;;;;;;;;;;;16.90;33.80;;;;;;5102485;28;19956;-89
2023/01/26 15:08:00;;;;;;;;;;;16.40;34.60;;;;;;5096156;28;20080;-89
2023/01/26 15:10:36;;;;;;;;;;;15.90;36.60;;;;;;5095617;28;19978;-89
2023/01/26 15:13:21;;;;;;;;;;;15.60;36.70;;;;;;5095717;28;19947;-88
2023/01/26 15:16:01;;;;;;;;;;;15.60;36.70;;;;;;5095530;28;19947;-88
2023/01/26 15:18:33;;;;;;;;;;;15.20;36.80;;;;;;5099892;28;19944;-88
2023/01/26 15:21:00;;;;;;;;;;;14.60;37.40;;;;;;5105593;28;19948;-88
2023/01/26 15:23:27;;;;;;;;;;;14.10;38.50;;;;;;5106129;28;19968;-89
2023/01/26 15:25:53;;;;;;;;;;;13.40;40.40;;;;;;5099566;28;19955;-89
2023/01/26 15:28:22;;;;;;;;;;;12.90;42.50;;;;;;5100716;28;19956;-89